Ironton, Texas
Current Conditions -  °F | °C
As of 6:15 AM on Friday 28 Nov 2014 (Local Time) from KJSO Reporting Station
Clear Clear  
Wind Chill: 35°   Ceiling: Unl
Heat Index: 42°   Visibility: 10mi
Dew Point: 33°   Wind: 12mph
Humidity: 71%   Direction: 170°S
Pressure: 30.34"   Gusts: NA
Location:  31.9649°N, 95.3036°W
Report Text: KJSO 281215Z AUTO 17010KT 10SM CLR 05/00 A3034 RMK AO2 T00550007
Loading
Personal Weather Stations






























Interactive Weather Map New forecast layout! Learn more

10-Day Weather Forecast

Advertisements
Track Severe Weather on mobile